Flight Track Log - Related Links

Times and Time Zones

All times are in EDT time to prevent confusion due to time zone crossing. See the N678DF flight status page for this flight to view local times or setup timezone preferences in your user account.

Time Position Orientation Groundspeed Altitude Reporting Facility
EDT Latitude Longitude Course Direction KTS MPH feet Rate Location/Type
Wed 03:34:33 PM 38.5333 -90.2167 15° North 122 140 1,900  Level Gateway (St. Louis) TRACON
Wed 03:35:07 PM 38.5325 -90.2381 267° West 116 133 2,500 758 Climbing Kansas City Center
Wed 03:36:08 PM 38.5481 -90.2756 298° West 119 137 3,100 293 Climbing Kansas City Center
Wed 03:37:10 PM 38.5703 -90.3189 303° West 132 152 3,100 242 Level Kansas City Center
Wed 03:38:12 PM 38.5981 -90.3644 308° West 147 169 3,600 532 Climbing Kansas City Center
Wed 03:39:00 PM 38.9205 -90.0131 15° North  Level FlightAware Approximate
Wed 03:39:14 PM 38.6361 -90.3731 350° North 149 171 4,200  Level Kansas City Center
Wed 03:40:16 PM 38.6808 -90.3603 13° North 159 183 4,300 581 Climbing Kansas City Center
Wed 03:41:18 PM 38.7269 -90.3622 358° North 152 175 5,400 871 Climbing Kansas City Center
Wed 03:42:20 PM 38.7567 -90.3344 36° Northeast 138 159 6,100 629 Climbing Kansas City Center
Wed 03:43:22 PM 38.7956 -90.3167 20° North 144 166 6,700 484 Climbing Kansas City Center
Wed 03:44:24 PM 38.8325 -90.2961 23° Northeast 146 168 7,100 194 Climbing Kansas City Center
Wed 03:45:26 PM 38.8731 -90.2717 25° Northeast 152 175 7,100  Level Kansas City Center
Wed 03:46:28 PM 38.9283 -90.2369 26° Northeast 170 196 7,100  Level Kansas City Center
Wed 03:47:30 PM 38.9744 -90.2094 25° Northeast 180 207 7,100  Level Kansas City Center
Wed 03:48:32 PM 39.0178 -90.1833 25° Northeast 176 203 7,100  Level Kansas City Center
Wed 03:49:34 PM 39.0625 -90.1556 26° Northeast 177 204 7,100  Level Kansas City Center
Wed 03:50:36 PM 39.1092 -90.1281 25° Northeast 183 211 7,100  Level Kansas City Center
Wed 03:51:38 PM 39.1553 -90.0992 26° Northeast 184 212 7,100  Level Kansas City Center
Wed 03:52:40 PM 39.2111 -90.0642 26° Northeast 186 214 7,100  Level Kansas City Center
Wed 03:53:42 PM 39.2572 -90.0378 24° Northeast 183 211 7,100 145 Level Kansas City Center
Wed 03:54:44 PM 39.3019 -90.0094 26° Northeast 180 207 7,400 484 Climbing Kansas City Center
Wed 03:55:46 PM 39.3400 -89.9861 25° Northeast 160 184 8,100 339 Climbing Kansas City Center
Wed 03:56:48 PM 39.3797 -89.9611 26° Northeast 157 181 8,100  Level Kansas City Center
Wed 03:57:50 PM 39.4258 -89.9331 25° Northeast 178 205 8,100 -48 Level Kansas City Center
Wed 03:58:52 PM 39.4806 -89.8989 26° Northeast 182 209 8,000  Descending Kansas City Center
Wed 03:59:54 PM 39.5281 -89.8706 25° Northeast 186 214 8,100  Climbing Kansas City Center
Wed 04:00:56 PM 39.5733 -89.8419 26° Northeast 183 211 8,000 -48 Descending Kansas City Center
Wed 04:01:58 PM 39.6206 -89.8139 25° Northeast 186 214 8,000 435 Level Kansas City Center
Wed 04:03:00 PM 39.6639 -89.7853 27° Northeast 176 203 8,900 532 Climbing Kansas City Center
Wed 04:04:02 PM 39.7025 -89.7611 26° Northeast 157 181 9,100 97 Climbing Kansas City Center
Wed 04:05:04 PM 39.7558 -89.7306 24° Northeast 179 206 9,100  Level Kansas City Center
Wed 04:06:06 PM 39.8028 -89.6992 27° Northeast 187 215 9,100  Level Kansas City Center
Wed 04:07:08 PM 39.8506 -89.6728 23° Northeast 187 215 9,100  Level Kansas City Center
Wed 04:08:10 PM 39.9014 -89.6728 360° North 181 208 9,100  Level Kansas City Center
Wed 04:09:12 PM 39.9617 -89.6678 North 181 208 9,100  Level Kansas City Center
Wed 04:10:15 PM 40.0117 -89.6658 North 180 207 9,100  Level Kansas City Center
Wed 04:11:17 PM 40.0614 -89.6619 North 179 206 9,100  Level Kansas City Center
Wed 04:12:19 PM 40.1111 -89.6578 North 179 206 9,100  Level Kansas City Center
Wed 04:13:17 PM 40.1617 -89.6544 North 181 208 9,100  Level Chicago Center
Wed 04:14:20 PM 40.2122 -89.6511 North 181 208 9,100  Level Chicago Center
Wed 04:15:22 PM 40.2628 -89.6475 North 182 209 9,100  Level Chicago Center
Wed 04:16:24 PM 40.3231 -89.6425 North 181 208 9,100  Level Chicago Center
Wed 04:17:26 PM 40.3733 -89.6397 North 181 208 9,100  Level Chicago Center
Wed 04:18:28 PM 40.4236 -89.6356 North 181 208 9,100  Level Chicago Center
Wed 04:19:30 PM 40.4733 -89.6314 North 180 207 9,100  Level Chicago Center
Wed 04:20:32 PM 40.5242 -89.6289 North 182 209 9,100  Level Chicago Center
Wed 04:21:34 PM 40.5717 -89.6250 North 175 201 9,100  Level Chicago Center
Wed 04:22:36 PM 40.6283 -89.6214 North 172 198 9,100  Level Chicago Center
Wed 04:23:38 PM 40.6756 -89.6181 North 171 197 9,100  Level Chicago Center
Wed 04:24:40 PM 40.7228 -89.6144 North 172 198 9,100  Level Chicago Center
Wed 04:25:42 PM 40.7700 -89.6108 North 171 197 9,100  Level Chicago Center
Wed 04:26:44 PM 40.8267 -89.6072 North 171 197 9,100  Level Chicago Center
Wed 04:27:47 PM 40.8736 -89.6039 North 170 196 9,100  Level Chicago Center
Wed 04:28:49 PM 40.9217 -89.6008 North 171 197 9,100  Level Chicago Center
Wed 04:29:51 PM 40.9689 -89.5981 North 171 197 9,100  Level Chicago Center
Wed 04:30:53 PM 41.0172 -89.5939 North 172 198 9,100  Level Chicago Center
Wed 04:31:55 PM 41.0661 -89.5906 North 175 201 9,100  Level Chicago Center
Wed 04:32:57 PM 41.1247 -89.5858 North 176 203 9,100  Level Chicago Center
Wed 04:33:59 PM 41.1736 -89.5833 North 175 201 9,100  Level Chicago Center
Wed 04:35:01 PM 41.2228 -89.5786 North 176 203 9,100  Level Chicago Center
Wed 04:36:03 PM 41.2725 -89.5742 North 178 205 9,100  Level Chicago Center
Wed 04:37:05 PM 41.3219 -89.5711 North 179 206 9,100  Level Chicago Center
Wed 04:38:07 PM 41.3708 -89.5669 North 176 203 9,100  Level Chicago Center
Wed 04:39:09 PM 41.4286 -89.5622 North 174 200 9,100  Level Chicago Center
Wed 04:40:11 PM 41.4769 -89.5586 North 173 199 9,100  Level Chicago Center
Wed 04:41:14 PM 41.5258 -89.5553 North 175 201 9,100  Level Chicago Center
Wed 04:42:16 PM 41.5753 -89.5519 North 177 204 9,100  Level Chicago Center
Wed 04:43:18 PM 41.6308 -89.5481 North 177 204 9,100  Level Chicago Center
Wed 04:44:20 PM 41.6797 -89.5436 North 177 204 9,100  Level Chicago Center
Wed 04:45:22 PM 41.7278 -89.5414 North 175 201 9,100  Level Chicago Center
Wed 04:46:24 PM 41.7769 -89.5369 North 177 204 9,100  Level Chicago Center
Wed 04:47:26 PM 41.8258 -89.5339 North 176 203 9,100  Level Chicago Center
Wed 04:48:28 PM 41.8839 -89.5297 North 175 201 9,100  Level Chicago Center
Wed 04:49:30 PM 41.9331 -89.5267 North 177 204 9,100  Level Chicago Center
Wed 04:50:32 PM 41.9811 -89.5203 North 175 201 9,100  Level Chicago Center
Wed 04:51:34 PM 42.0292 -89.5131 North 174 200 9,100  Level Chicago Center
Wed 04:52:36 PM 42.0778 -89.5053 North 171 197 9,100  Level Chicago Center
Wed 04:53:38 PM 42.1339 -89.4983 North 173 199 9,100 -48 Level Chicago Center
Wed 04:54:40 PM 42.1831 -89.4903 North 176 203 9,000 -48 Descending Chicago Center
Wed 04:55:43 PM 42.2322 -89.4844 North 177 204 9,000  Level Chicago Center
Wed 04:56:45 PM 42.2803 -89.4769 North 175 201 9,000  Level Chicago Center
Wed 04:57:47 PM 42.3269 -89.4678 North 171 197 9,000  Level Chicago Center
Wed 04:58:49 PM 42.3747 -89.4600 North 170 196 9,000  Level Chicago Center
Wed 04:59:51 PM 42.4303 -89.4517 North 171 197 9,000  Level Chicago Center
Wed 05:00:53 PM 42.4769 -89.4433 North 170 196 9,000  Level Chicago Center
Wed 05:01:55 PM 42.5242 -89.4369 North 170 196 9,000 -339 Level Chicago Center
Wed 05:02:57 PM 42.5750 -89.4283 North 180 207 8,300 -726 Descending Chicago Center
Wed 05:03:59 PM 42.6269 -89.4197 North 187 215 7,500 -774 Descending Chicago Center
Wed 05:05:01 PM 42.6836 -89.4106 North 176 203 6,700 -629 Descending Chicago Center
Wed 05:06:03 PM 42.7300 -89.4036 North 171 197 6,200 -581 Descending Chicago Center
Wed 05:07:05 PM 42.7758 -89.3953 North 166 191 5,500 -571 Descending Chicago Center
Wed 05:08:09 PM 42.8214 -89.3889 North 165 190 5,000 -240 Descending Chicago Center
Wed 05:09:10 PM 42.8661 -89.3808 North 162 186 5,000 -49 Level Chicago Center
Wed 05:10:12 PM 42.9089 -89.3564 23° Northeast 169 194 4,900 -290 Descending Chicago Center
Wed 05:11:14 PM 42.9564 -89.3106 35° Northeast 177 204 4,400 -435 Descending Chicago Center
Wed 05:12:16 PM 42.9869 -89.2533 54° Northeast 182 209 4,000 -290 Descending Chicago Center
Wed 05:13:18 PM 43.0103 -89.2114 53° Northeast 156 180 3,800 -290 Descending Chicago Center
Wed 05:14:20 PM 43.0458 -89.2147 356° North 154 177 3,400 -581 Descending Chicago Center
Wed 05:15:22 PM 43.0831 -89.2592 319° Northwest 169 194 2,600 -919 Descending Chicago Center
Wed 05:16:24 PM 43.1222 -89.3067 318° Northwest 169 194 1,500 -726 Descending Chicago Center
Wed 05:17:26 PM 43.1442 -89.3339 318° Northwest 149 171 1,100 -387 Descending Chicago Center
Wed 05:19:00 PM 43.1333 -89.3333 North  Level FlightAware Approximate

Login

Don't have an account? Register now (free) for customized features, flight alerts, and more!